Moreno Valley, CA (92555)

3:28 PM PDT on September 17, 2014 (GMT -0700)
Moreno Valley | Change Station
CLOSE
Current Station
Personal Weather Station
Location: Moreno Valley, CA
Elevation: 1572 ft
Nearby Weather Stations
Active Advisory: Areal Flood Advisory Active Notice: Record Report

Elev 1572 ft 33.91 °N, 117.24 °W | Updated 7 seconds ago

Partly Cloudy
Partly Cloudy
94.4 °F
Feels Like 96 °F
N
11.0
Wind Variable Wind from WNW
Gusts 17.0 mph

Today
High -- | Low -- °F
--% Chance of Precip.
Yesterday
High -- | Low -- °F
Precip. -- in
6:33 AM 6:52 PM
Waning Crescent, 32% visible
Pressure 29.70 in
Visibility 10.0 miles
Clouds Clear
Heat Index 96 °F
Dew Point 62 °F
Humidity 35%
Rainfall 0.00 in
Snow Depth 0 in , 2 in , 0 in
UV 7 out of 12
Pollen 6.90 out of 12
Air Quality Not available.
Flu Activity Not available.
METAR KRIV 172158Z AUTO 29010KT 10SM CLR 36/16 A2976 RMK AO2 SLP058 T03640160

More Conditions Fewer Conditions

Pressure 29.70 in
Visibility 10.0 miles
Clouds Clear
Heat Index 96 °F
Dew Point 62 °F
Humidity 35%
Rainfall 0.00 in
Snow Depth 0 in , 2 in , 0 in
UV 7 out of 12
Pollen 6.90 out of 12
Air Quality Not available.
Flu Activity Not available.
METAR KRIV 172158Z AUTO 29010KT 10SM CLR 36/16 A2976 RMK AO2 SLP058 T03640160

More Conditions Fewer Conditions

10-Day Weather Forecast

Almanac

Astronomy

Sep. 17, 2014 Rise Set
Actual Time 6:33 AM PDT 6:52 PM PDT
Civil Twilight 6:08 AM PDT 7:17 PM PDT
Nautical Twilight 5:38 AM PDT 7:46 PM PDT
Astronomical Twilight 5:09 AM PDT 8:15 PM PDT
Moon 12:48 AM PDT 2:54 PM PDT
Length of Visible Light 13h 08m
Length of Day
12h 18m
Tomorrow will be 2m 5s shorter.
Waning Crescent, 32% of the Moon is Illuminated
Today
Waning Crescent
Sep 24
New
Oct 1
First Quarter
Oct 8
Full
Oct 15
Last Quarter

Today's Extremes

State Highs State Lows

Community

WunderPhotos

Upload Photos

1,754,174 photos uploaded!

Nearby

Air Quality

  Air Quality AQ Index Pollutant
Yesterday Good
OZONE
Thursday Moderate
OZONE
Thursday Good
PM10
Thursday Good
CO
Thursday Good
NO2

Snow Depth

Station Depth Elevation
Tahoe City Cross 0 in 6750 ft
CSS Lab 2 in 6900 ft
Burnside Lake 0 in 8139 ft
Hagan's Meadow 0 in 8000 ft
Adin Mountain 0 in 6200 ft

Earthquake Activity

City Distance Mag. Time & Date
La Quinta, California 48 miles 2.7 8:59 PM PDT
2014-09-15
Minimum magnitude displayed is 2.5.

Coastal Water Temperatures

Place Temperature
No Stations Reporting

Nearby Weather Stations